Time;durP1;ratioP1;P1;durP2;ratioP2;P2;SDS_P1;SDS_P2;PMS_P1;PMS_P2;Temp;Humidity;BMP_temperature;BMP_pressure;BME280_temperature;BME280_humidity;BME280_pressure;Samples;Min_cycle;Max_cycle;Signal;HPM_P1;HPM_P2
2022/07/04 00:00:43;;;;;;;;;;;;;;;16.18;52.30762;102048.2;;;;-82
2022/07/04 00:05:48;;;;;;;;;;;;;;;16.14;52.29102;102047.7;;;;-83
2022/07/04 00:10:37;;;;;;;;;;;;;;;16.12;52.36719;102041.4;;;;-82
2022/07/04 00:15:42;;;;;;;;;;;;;;;16.06;52.37109;102036.9;;;;-83
2022/07/04 00:16:36;;;;;;;3.7;1.5;;;;;;;;;;;;;-83
2022/07/04 00:20:36;;;;;;;;;;;;;;;16.04;52.73047;102032.7;;;;-83
2022/07/04 00:25:44;;;;;;;;;;;;;;;15.97;52.79004;102028.9;;;;-81
2022/07/04 00:30:38;;;;;;;;;;;;;;;15.93;52.64941;102027.1;;;;-81
2022/07/04 00:35:50;;;;;;;;;;;;;;;15.89;52.65723;102022.9;;;;-83
2022/07/04 00:40:40;;;;;;;;;;;;;;;15.86;53.20605;102027.7;;;;-82
2022/07/04 00:45:38;;;;;;;;;;;;;;;15.81;52.95215;102022.7;;;;-82
2022/07/04 00:46:55;;;;;;;;;;;;;;;16.04;52.93359;102017;;;;-82
2022/07/04 00:51:01;;;;;;;;;;;;;;;15.81;53.39258;102017.3;;;;-83
2022/07/04 00:56:05;;;;;;;;;;;;;;;15.76;53.0127;102007.8;;;;-82
2022/07/04 01:01:00;;;;;;;;;;;;;;;15.75;53.35059;102011.8;;;;-83
2022/07/04 01:06:02;;;;;;;;;;;;;;;15.69;53.72656;102012;;;;-83
2022/07/04 01:11:04;;;;;;;;;;;;;;;15.67;54.41309;102010.3;;;;-84
2022/07/04 01:16:01;;;;;;;;;;;;;;;15.62;53.87598;102001.6;;;;-85
2022/07/04 01:16:44;;;;;;;4.4;1.5;;;;;;;;;;;;;-83
2022/07/04 01:21:00;;;;;;;;;;;;;;;15.62;53.75195;101995.8;;;;-82
2022/07/04 01:26:02;;;;;;;;;;;;;;;15.56;53.76758;101988.3;;;;-82
2022/07/04 01:31:05;;;;;;;;;;;;;;;15.57;53.94922;101988.1;;;;-84
2022/07/04 01:36:00;;;;;;;;;;;;;;;15.54;54.83691;101989.9;;;;-84
2022/07/04 01:41:09;;;;;;;;;;;;;;;15.52;54.19043;101989.8;;;;-82
2022/07/04 01:46:02;;;;;;;;;;;;;;;15.51;54.13281;101989.3;;;;-83
2022/07/04 01:46:39;;;;;;;3.8;1.4;;;;;;;;;;;;;-82
2022/07/04 01:51:00;;;;;;;;;;;;;;;15.46;53.8457;101990.6;;;;-82
2022/07/04 01:56:14;;;;;;;;;;;;;;;15.43;53.77344;101991.1;;;;-83
2022/07/04 02:06:02;;;;;;;;;;;;;;;15.36;53.82324;101987.5;;;;-83
2022/07/04 02:11:02;;;;;;;;;;;;;;;15.34;54.21387;101987.5;;;;-83
2022/07/04 02:16:03;;;;;;;;;;;;;;;15.33;54.41504;101986.8;;;;-80
2022/07/04 02:16:43;;;;;;;4.2;1.4;;;;;;;;;;;;;-82
2022/07/04 02:21:03;;;;;;;;;;;;;;;15.3;54.0293;101994.2;;;;-84
2022/07/04 02:26:01;;;;;;;;;;;;;;;15.29;54.19629;101988.8;;;;-82
2022/07/04 02:31:04;;;;;;;;;;;;;;;15.27;54.4082;101986.9;;;;-82
2022/07/04 02:36:00;;;;;;;;;;;;;;;15.23;54.16699;101986.9;;;;-83
2022/07/04 02:41:01;;;;;;;;;;;;;;;15.22;54.45801;101985.7;;;;-85
2022/07/04 02:46:02;;;;;;;;;;;;;;;15.21;55.41406;101988;;;;-83
2022/07/04 02:46:47;;;;;;;4.3;1.3;;;;;;;;;;;;;-83
2022/07/04 02:51:14;;;;;;;;;;;;;;;15.23;54.71777;101989.7;;;;-83
2022/07/04 02:56:03;;;;;;;;;;;;;;;15.22;55.11133;101989.6;;;;-83
2022/07/04 03:01:14;;;;;;;;;;;;;;;15.2;55.06445;101987.7;;;;-83
2022/07/04 03:06:10;;;;;;;;;;;;;;;15.22;54.91992;101981;;;;-82
2022/07/04 03:11:10;;;;;;;;;;;;;;;15.22;54.76172;101975;;;;-82
2022/07/04 03:16:13;;;;;;;;;;;;;;;15.22;54.76172;101979.9;;;;-83
2022/07/04 03:16:46;;;;;;;3.1;1.1;;;;;;;;;;;;;-82
2022/07/04 03:21:10;;;;;;;;;;;;;;;15.19;55.06445;101986.5;;;;-82
2022/07/04 03:26:00;;;;;;;;;;;;;;;15.15;55.59863;101986.2;;;;-83
2022/07/04 03:31:06;;;;;;;;;;;;;;;15.14;55.62012;101988.3;;;;-84
2022/07/04 03:36:03;;;;;;;;;;;;;;;15.11;55.86523;101989.5;;;;-83
2022/07/04 03:41:02;;;;;;;;;;;;;;;15.1;56.2002;101988.5;;;;-83
2022/07/04 03:46:01;;;;;;;;;;;;;;;15.1;55.78516;101988.3;;;;-82
2022/07/04 03:46:48;;;;;;;4.1;1.5;;;;;;;;;;;;;-82
2022/07/04 03:51:01;;;;;;;;;;;;;;;15.13;55.72168;101980.5;;;;-83
2022/07/04 03:56:05;;;;;;;;;;;;;;;15.16;55.56738;101982.6;;;;-82
2022/07/04 04:01:02;;;;;;;;;;;;;;;15.18;55.33203;101992.9;;;;-82
2022/07/04 04:06:00;;;;;;;;;;;;;;;15.2;55.32324;101993;;;;-84
2022/07/04 04:11:01;;;;;;;;;;;;;;;15.22;55.25781;101998.3;;;;-85
2022/07/04 04:16:05;;;;;;;;;;;;;;;15.25;55.25195;101999.1;;;;-82
2022/07/04 04:16:56;;;;;;;4.3;1.4;;;;;;;;;;;;;-82
2022/07/04 04:21:06;;;;;;;;;;;;;;;15.26;55.30957;102002.1;;;;-84
2022/07/04 04:26:00;;;;;;;;;;;;;;;15.26;55.44434;101996.4;;;;-81
2022/07/04 04:31:01;;;;;;;;;;;;;;;15.26;55.46777;101997.5;;;;-85
2022/07/04 04:36:09;;;;;;;;;;;;;;;15.27;55.76074;102001.9;;;;-82
2022/07/04 04:41:01;;;;;;;;;;;;;;;15.31;56.02539;102008.5;;;;-83
2022/07/04 04:46:00;;;;;;;;;;;;;;;15.38;55.58301;102011.4;;;;-81
2022/07/04 04:46:49;;;;;;;5.6;1.4;;;;;;;;;;;;;-86
2022/07/04 04:51:03;;;;;;;;;;;;;;;15.44;55.39941;102017.6;;;;-84
2022/07/04 04:56:01;;;;;;;;;;;;;;;15.47;56.05664;102018.8;;;;-84
2022/07/04 05:01:07;;;;;;;;;;;;;;;15.47;55.45898;102022.7;;;;-84
2022/07/04 05:06:07;;;;;;;;;;;;;;;15.48;55.49414;102020;;;;-82
2022/07/04 05:11:20;;;;;;;;;;;;;;;15.51;55.93848;102030.2;;;;-83
2022/07/04 05:16:26;;;;;;;;;;;;;;;15.52;55.83789;102031.7;;;;-82
2022/07/04 05:17:10;;;;;;;5;1.8;;;;;;;;;;;;;-83
2022/07/04 05:17:35;;;;;;;;;;;;;;;15.87;55.63477;102033.4;;;;-80
2022/07/04 05:21:05;;;;;;;;;;;;;;;15.59;55.85742;102033.9;;;;-83
2022/07/04 05:26:24;;;;;;;;;;;;;;;15.76;55.93555;102033.1;;;;-81
2022/07/04 05:31:16;;;;;;;;;;;;;;;16.23;55.00195;102044.9;;;;-81
2022/07/04 05:36:14;;;;;;;;;;;;;;;16.96;54.59473;102046.8;;;;-83
2022/07/04 05:41:05;;;;;;;;;;;;;;;17.81;52.96387;102042.4;;;;-81
2022/07/04 05:46:58;;;;;;;;;;;;;;;18.97;50.97656;102038.3;;;;-82
2022/07/04 05:50:02;;;;;;;;;;;;;;;19.16;50.76953;102035.7;;;;-81
2022/07/04 05:54:48;;;;;;;;;;;;;;;19.83;49.62695;102029.5;;;;-83
2022/07/04 05:59:52;;;;;;;;;;;;;;;20.45;48.57715;102037.9;;;;-82
2022/07/04 06:04:50;;;;;;;;;;;;;;;21.06;47.64746;102035.5;;;;-81
2022/07/04 06:09:57;;;;;;;;;;;;;;;21.62;47.08887;102024.5;;;;-82
2022/07/04 06:14:47;;;;;;;;;;;;;;;22.15;46.26074;102017.8;;;;-81
2022/07/04 06:17:11;;;;;;;2.8;1.3;;;;;;;;;;;;;-82
2022/07/04 06:19:47;;;;;;;;;;;;;;;22.6;45.80176;102016.6;;;;-83
2022/07/04 06:24:52;;;;;;;;;;;;;;;23.01;45.26953;102017.7;;;;-82
2022/07/04 06:29:49;;;;;;;;;;;;;;;23.33;44.97949;102021.9;;;;-85
2022/07/04 06:39:47;;;;;;;;;;;;;;;24.12;44.07813;102028.2;;;;-83
2022/07/04 06:44:49;;;;;;;;;;;;;;;24.47;43.51172;102030.3;;;;-79
2022/07/04 06:47:02;;;;;;;2.6;1.1;;;;;;;;;;;;;-82
2022/07/04 06:49:47;;;;;;;;;;;;;;;24.71;43.24707;102031.8;;;;-83
2022/07/04 06:54:58;;;;;;;;;;;;;;;24.99;42.94922;102029.5;;;;-81
2022/07/04 06:59:49;;;;;;;;;;;;;;;25.2;42.68164;102030.3;;;;-84
2022/07/04 07:04:49;;;;;;;;;;;;;;;25.45;42.42676;102032.6;;;;-81
2022/07/04 07:09:53;;;;;;;;;;;;;;;25.66;42.12207;102027.9;;;;-82
2022/07/04 07:14:51;;;;;;;;;;;;;;;25.89;41.72656;102031;;;;-82
2022/07/04 07:17:00;;;;;;;2.9;1.3;;;;;;;;;;;;;-82
2022/07/04 07:19:47;;;;;;;;;;;;;;;26.18;41.52148;102032.1;;;;-82
2022/07/04 07:24:59;;;;;;;;;;;;;;;26.37;40.69238;102028.6;;;;-82
2022/07/04 07:29:53;;;;;;;;;;;;;;;26.51;40.34473;102027.9;;;;-85
2022/07/04 07:34:52;;;;;;;;;;;;;;;26.73;39.98145;102026.3;;;;-83
2022/07/04 07:39:50;;;;;;;;;;;;;;;26.92;39.38184;102033.2;;;;-83
2022/07/04 07:44:50;;;;;;;;;;;;;;;27.11;39.00391;102032.7;;;;-82
2022/07/04 07:47:11;;;;;;;2.8;1.2;;;;;;;;;;;;;-83
2022/07/04 07:49:51;;;;;;;;;;;;;;;27.08;39.07031;102038.5;;;;-83
2022/07/04 07:55:01;;;;;;;;;;;;;;;26.94;39.39453;102038.1;;;;-83
2022/07/04 07:59:55;;;;;;;;;;;;;;;26.86;39.46875;102040.6;;;;-81
2022/07/04 08:04:49;;;;;;;;;;;;;;;26.96;39.65332;102037.2;;;;-82
2022/07/04 08:09:47;;;;;;;;;;;;;;;27.24;38.96777;102042.2;;;;-82
2022/07/04 08:14:49;;;;;;;;;;;;;;;27.25;38.66602;102055.1;;;;-84
2022/07/04 08:17:15;;;;;;;2.2;1;;;;;;;;;;;;;-83
2022/07/04 08:19:56;;;;;;;;;;;;;;;27.16;38.51953;102061.1;;;;-82
2022/07/04 08:24:47;;;;;;;;;;;;;;;26.98;38.51465;102068.6;;;;-83
2022/07/04 08:29:47;;;;;;;;;;;;;;;26.72;38.87695;102077.7;;;;-82
2022/07/04 08:34:47;;;;;;;;;;;;;;;26.48;39.16895;102079.5;;;;-83
2022/07/04 08:39:47;;;;;;;;;;;;;;;26.33;39.41211;102082.3;;;;-83
2022/07/04 08:50:10;;;;;;;;;;;;;;;26.19;39.41016;102085.2;;;;-84
2022/07/04 08:59:49;;;;;;;;;;;;;;;26.15;39.44238;102082.8;;;;-85
2022/07/04 09:04:47;;;;;;;;;;;;;;;26.19;39.38867;102104.6;;;;-82
2022/07/04 09:10:06;;;;;;;;;;;;;;;26.14;39.31445;102104.3;;;;-85
2022/07/04 09:15:01;;;;;;;;;;;;;;;26.13;39.55664;102103.1;;;;-83
2022/07/04 09:17:25;;;;;;;2.6;1.3;;;;;;;;;;;;;-84
2022/07/04 09:20:04;;;;;;;;;;;;;;;26.35;39.5752;102101.8;;;;-84
2022/07/04 09:24:54;;;;;;;;;;;;;;;26.74;39.2959;102094.3;;;;-83
2022/07/04 09:29:59;;;;;;;;;;;;;;;27.21;38.87305;102088.6;;;;-83
2022/07/04 09:34:54;;;;;;;;;;;;;;;27.77;37.62793;102094.9;;;;-83
2022/07/04 09:39:49;;;;;;;;;;;;;;;28.25;36.46582;102104.7;;;;-83
2022/07/04 09:45:02;;;;;;;;;;;;;;;28.54;35.22852;102106;;;;-84
2022/07/04 09:47:27;;;;;;;3.2;0.9;;;;;;;;;;;;;-83
2022/07/04 09:49:57;;;;;;;;;;;;;;;28.73;34.6582;102110.9;;;;-83
2022/07/04 09:54:51;;;;;;;;;;;;;;;28.89;34.30859;102113.5;;;;-82
2022/07/04 09:59:47;;;;;;;;;;;;;;;29.14;33.56641;102116;;;;-82
2022/07/04 10:04:51;;;;;;;;;;;;;;;29.4;33.59766;102122.8;;;;-82
2022/07/04 10:09:47;;;;;;;;;;;;;;;29.58;32.94336;102112.9;;;;-85
2022/07/04 10:14:57;;;;;;;;;;;;;;;29.71;32.78809;102107.3;;;;-84
2022/07/04 10:17:23;;;;;;;1.9;0.6;;;;;;;;;;;;;-84
2022/07/04 10:19:52;;;;;;;;;;;;;;;29.74;32.27539;102102.4;;;;-84
2022/07/04 10:24:54;;;;;;;;;;;;;;;29.75;32.33496;102096.6;;;;-81
2022/07/04 10:29:53;;;;;;;;;;;;;;;29.75;32.06543;102097.5;;;;-85
2022/07/04 10:34:48;;;;;;;;;;;;;;;29.76;31.7373;102105.1;;;;-84
2022/07/04 10:39:49;;;;;;;;;;;;;;;29.86;31.45117;102100.4;;;;-84
2022/07/04 10:45:22;;;;;;;;;;;;;;;;;;;;;
2022/07/04 10:49:56;;;;;;;;;;;;;;;30.33;31.13184;102099.4;;;;-85
2022/07/04 11:00:07;;;;;;;;;;;;;;;30.62;30.8584;102104;;;;-85
2022/07/04 11:10:16;;;;;;;;;;;;;;;30.96;30.52832;102103.5;;;;-85
2022/07/04 11:15:34;;;;;;;;;;;;;;;31.09;30.2666;102097.5;;;;-84
2022/07/04 11:17:42;;;;;;;2.1;0.6;;;;;;;;;;;;;-84
2022/07/04 11:20:09;;;;;;;;;;;;;;;31.19;30.47266;102091.4;;;;-78
2022/07/04 11:25:01;;;;;;;;;;;;;;;31.37;30.61426;102090.3;;;;-78
2022/07/04 11:30:01;;;;;;;;;;;;;;;31.5;30.09375;102094.9;;;;-79
2022/07/04 11:35:02;;;;;;;;;;;;;;;31.55;30.28516;102088.4;;;;-79
2022/07/04 11:45:08;;;;;;;;;;;;;;;31.81;30.53809;102081.8;;;;-79
2022/07/04 11:47:39;;;;;;;2;0.6;;;;;;;;;;;;;-78
2022/07/04 11:50:02;;;;;;;;;;;;;;;31.86;30.50684;102081.1;;;;-80
2022/07/04 11:55:03;;;;;;;;;;;;;;;31.97;30.25488;102087.7;;;;-80
2022/07/04 12:00:03;;;;;;;;;;;;;;;31.98;30.23145;102083.3;;;;-78
2022/07/04 12:05:02;;;;;;;;;;;;;;;32.06;30.28418;102091.5;;;;-78
2022/07/04 12:10:10;;;;;;;;;;;;;;;32.1;30.07422;102081.1;;;;-79
2022/07/04 12:15:09;;;;;;;;;;;;;;;32.08;30.02637;102087.2;;;;-78
2022/07/04 12:17:41;;;;;;;2.5;0.5;;;;;;;;;;;;;-79
2022/07/04 12:20:02;;;;;;;;;;;;;;;31.96;30.48926;102074.4;;;;-80
2022/07/04 12:25:02;;;;;;;;;;;;;;;32.01;30.15039;102072.5;;;;-78
2022/07/04 12:30:03;;;;;;;;;;;;;;;31.99;30.49121;102074.5;;;;-79
2022/07/04 12:35:02;;;;;;;;;;;;;;;32.07;30.14355;102064.9;;;;-78
2022/07/04 12:40:10;;;;;;;;;;;;;;;32.08;29.95508;102070.6;;;;-79
2022/07/04 12:45:12;;;;;;;;;;;;;;;32.06;30.18945;102063.5;;;;-80
2022/07/04 12:47:52;;;;;;;1.1;0.5;;;;;;;;;;;;;-78
2022/07/04 12:50:01;;;;;;;;;;;;;;;32.12;29.875;102065.8;;;;-78
2022/07/04 12:55:12;;;;;;;;;;;;;;;32.17;29.63086;102063.8;;;;-78
2022/07/04 13:00:01;;;;;;;;;;;;;;;32.22;29.74023;102068.3;;;;-81
2022/07/04 13:10:01;;;;;;;;;;;;;;;32.15;29.58301;102061.9;;;;-77
2022/07/04 13:15:05;;;;;;;;;;;;;;;32.18;29.39551;102059.2;;;;-76
2022/07/04 13:17:49;;;;;;;1.1;0.5;;;;;;;;;;;;;-78
2022/07/04 13:20:02;;;;;;;;;;;;;;;32.28;29.20215;102061.2;;;;-73
2022/07/04 13:25:03;;;;;;;;;;;;;;;32.28;29.20215;102060;;;;-73
2022/07/04 13:30:02;;;;;;;;;;;;;;;32.27;29.34277;102057.1;;;;-71
2022/07/04 13:35:01;;;;;;;;;;;;;;;32.34;29.40625;102058.8;;;;-73
2022/07/04 13:40:01;;;;;;;;;;;;;;;32.42;29.1875;102066.1;;;;-79
2022/07/04 13:45:01;;;;;;;;;;;;;;;32.48;29.19043;102070.7;;;;-79
2022/07/04 13:47:56;;;;;;;1.5;0.5;;;;;;;;;;;;;-80
2022/07/04 13:50:02;;;;;;;;;;;;;;;32.53;29.22949;102075.4;;;;-78
2022/07/04 13:55:01;;;;;;;;;;;;;;;32.56;29.125;102075.8;;;;-79
2022/07/04 14:00:01;;;;;;;;;;;;;;;32.57;28.93652;102080.6;;;;-78
2022/07/04 14:05:02;;;;;;;;;;;;;;;32.56;28.93555;102078.4;;;;-80
2022/07/04 14:10:01;;;;;;;;;;;;;;;32.54;28.92383;102079.8;;;;-77
2022/07/04 14:15:04;;;;;;;;;;;;;;;32.53;29.01758;102079;;;;-79
2022/07/04 14:17:59;;;;;;;2.4;0.4;;;;;;;;;;;;;-80
2022/07/04 14:20:03;;;;;;;;;;;;;;;32.46;28.96484;102075.3;;;;-77
2022/07/04 14:25:01;;;;;;;;;;;;;;;32.38;29.05469;102071.1;;;;-79
2022/07/04 14:30:01;;;;;;;;;;;;;;;32.34;29.14648;102068.1;;;;-77
2022/07/04 14:35:01;;;;;;;;;;;;;;;32.3;29.23926;102064;;;;-80
2022/07/04 14:40:01;;;;;;;;;;;;;;;32.31;29.0625;102071.8;;;;-78
2022/07/04 14:45:01;;;;;;;;;;;;;;;32.25;28.96387;102070.8;;;;-78
2022/07/04 14:48:04;;;;;;;1.9;0.6;;;;;;;;;;;;;-80
2022/07/04 14:50:01;;;;;;;;;;;;;;;32.29;29.10742;102066.6;;;;-80
2022/07/04 14:55:01;;;;;;;;;;;;;;;32.29;29.00098;102065.9;;;;-78
2022/07/04 15:00:01;;;;;;;;;;;;;;;32.24;29.02148;102062;;;;-79
2022/07/04 15:05:02;;;;;;;;;;;;;;;32.15;28.94629;102059.7;;;;-71
2022/07/04 15:10:02;;;;;;;;;;;;;;;32.08;28.95313;102061;;;;-81
2022/07/04 15:15:06;;;;;;;;;;;;;;;31.98;28.80469;102062.1;;;;-79
2022/07/04 15:18:09;;;;;;;2;0.7;;;;;;;;;;;;;-79
2022/07/04 15:25:05;;;;;;;;;;;;;;;31.78;29.05176;102057.6;;;;-80
2022/07/04 15:30:01;;;;;;;;;;;;;;;31.7;29.11719;102064;;;;-80
2022/07/04 15:35:01;;;;;;;;;;;;;;;31.58;28.98047;102062.2;;;;-79
2022/07/04 15:40:01;;;;;;;;;;;;;;;31.46;28.92578;102073.7;;;;-78
2022/07/04 15:45:04;;;;;;;;;;;;;;;31.31;29.16309;102068.1;;;;-81
2022/07/04 15:48:13;;;;;;;1.7;0.8;;;;;;;;;;;;;-81
2022/07/04 15:50:01;;;;;;;;;;;;;;;31.14;29.23438;102061.7;;;;-79
2022/07/04 15:55:02;;;;;;;;;;;;;;;31.04;29.42871;102055.2;;;;-72
2022/07/04 16:00:01;;;;;;;;;;;;;;;30.85;29.28613;102052.5;;;;-71
2022/07/04 16:05:01;;;;;;;;;;;;;;;30.75;29.65625;102051.2;;;;-71
2022/07/04 16:10:01;;;;;;;;;;;;;;;30.6;29.72949;102043.9;;;;-79
2022/07/04 16:15:01;;;;;;;;;;;;;;;30.38;29.63184;102059.7;;;;-80
2022/07/04 16:18:21;;;;;;;2.2;0.8;;;;;;;;;;;;;-81
2022/07/04 16:20:02;;;;;;;;;;;;;;;30.19;29.93652;102037.6;;;;-80
2022/07/04 16:25:03;;;;;;;;;;;;;;;30;30.06445;102038.7;;;;-80
2022/07/04 16:30:01;;;;;;;;;;;;;;;29.86;30.06738;102036.7;;;;-79
2022/07/04 16:35:01;;;;;;;;;;;;;;;29.69;30.4668;102032.3;;;;-83
2022/07/04 16:40:01;;;;;;;;;;;;;;;29.54;30.63281;102025.7;;;;-72
2022/07/04 16:45:02;;;;;;;;;;;;;;;29.39;30.59863;102025.8;;;;-73
2022/07/04 16:48:23;;;;;;;2.3;0.8;;;;;;;;;;;;;-73
2022/07/04 16:50:01;;;;;;;;;;;;;;;29.23;30.7998;102020.2;;;;-72
2022/07/04 16:55:03;;;;;;;;;;;;;;;29.07;30.7998;102030.1;;;;-72
2022/07/04 17:00:02;;;;;;;;;;;;;;;28.88;31.02051;102024.9;;;;-72
2022/07/04 17:05:01;;;;;;;;;;;;;;;28.69;31.06641;102027.3;;;;-73
2022/07/04 17:10:02;;;;;;;;;;;;;;;28.52;31.27637;102035.1;;;;-76
2022/07/04 17:15:01;;;;;;;;;;;;;;;28.29;31.44824;102031.6;;;;-73
2022/07/04 17:18:27;;;;;;;2.5;0.7;;;;;;;;;;;;;-72
2022/07/04 17:20:01;;;;;;;;;;;;;;;28.09;31.62109;102035.2;;;;-73
2022/07/04 17:25:01;;;;;;;;;;;;;;;27.9;31.72461;102030.6;;;;-72
2022/07/04 17:30:01;;;;;;;;;;;;;;;27.68;31.69727;102037.5;;;;-71
2022/07/04 17:35:04;;;;;;;;;;;;;;;27.46;31.92676;102036.9;;;;-72
2022/07/04 17:40:01;;;;;;;;;;;;;;;27.27;32.32129;102041.6;;;;-74
2022/07/04 17:45:01;;;;;;;;;;;;;;;27.1;32.60059;102048;;;;-78
2022/07/04 17:48:32;;;;;;;2.9;0.9;;;;;;;;;;;;;-78
2022/07/04 17:50:02;;;;;;;;;;;;;;;26.94;32.76367;102053.6;;;;-79
2022/07/04 17:55:01;;;;;;;;;;;;;;;26.77;32.90234;102052.9;;;;-78
2022/07/04 18:00:01;;;;;;;;;;;;;;;26.55;32.96777;102054.6;;;;-81
2022/07/04 18:05:01;;;;;;;;;;;;;;;26.29;33.34375;102055.3;;;;-79
2022/07/04 18:10:01;;;;;;;;;;;;;;;26.02;33.56836;102052.1;;;;-71
2022/07/04 18:15:01;;;;;;;;;;;;;;;25.75;33.73438;102067.8;;;;-79
2022/07/04 18:18:37;;;;;;;2.5;0.8;;;;;;;;;;;;;-78
2022/07/04 18:20:01;;;;;;;;;;;;;;;25.45;33.89746;102058.9;;;;-79
2022/07/04 18:25:03;;;;;;;;;;;;;;;25.27;33.94043;102076.3;;;;-78
2022/07/04 18:30:01;;;;;;;;;;;;;;;25.1;33.96289;102074.5;;;;-80
2022/07/04 18:35:03;;;;;;;;;;;;;;;24.99;34.03613;102073.6;;;;-71
2022/07/04 18:40:01;;;;;;;;;;;;;;;24.87;34.06152;102079.5;;;;-79
2022/07/04 18:45:01;;;;;;;;;;;;;;;24.75;34.27344;102080.5;;;;-70
2022/07/04 18:48:41;;;;;;;1.6;0.8;;;;;;;;;;;;;-71
2022/07/04 18:50:02;;;;;;;;;;;;;;;24.62;34.29688;102085.4;;;;-71
2022/07/04 18:55:01;;;;;;;;;;;;;;;24.5;34.53125;102089.1;;;;-71
2022/07/04 19:00:02;;;;;;;;;;;;;;;24.34;34.71582;102085.7;;;;-71
2022/07/04 19:05:01;;;;;;;;;;;;;;;24.12;35.03418;102087.7;;;;-71
2022/07/04 19:10:01;;;;;;;;;;;;;;;23.85;35.34863;102090.6;;;;-71
2022/07/04 19:15:01;;;;;;;;;;;;;;;23.56;35.45215;102089.1;;;;-71
2022/07/04 19:18:44;;;;;;;2.1;0.9;;;;;;;;;;;;;-72
2022/07/04 19:20:03;;;;;;;;;;;;;;;23.28;35.83398;102097.5;;;;-71
2022/07/04 19:25:01;;;;;;;;;;;;;;;22.99;36.15723;102096.1;;;;-70
2022/07/04 19:30:02;;;;;;;;;;;;;;;22.69;36.55957;102103;;;;-70
2022/07/04 19:35:01;;;;;;;;;;;;;;;22.43;37.04492;102103.8;;;;-79
2022/07/04 19:40:02;;;;;;;;;;;;;;;22.2;37.54297;102104.3;;;;-78
2022/07/04 19:45:02;;;;;;;;;;;;;;;21.98;37.91602;102109.2;;;;-76
2022/07/04 19:48:46;;;;;;;2.1;0.9;;;;;;;;;;;;;-78
2022/07/04 19:50:02;;;;;;;;;;;;;;;21.79;38.29004;102114.1;;;;-79
2022/07/04 19:55:02;;;;;;;;;;;;;;;21.59;38.66406;102111.3;;;;-78
2022/07/04 20:00:02;;;;;;;;;;;;;;;21.4;39.10742;102121.1;;;;-77
2022/07/04 20:05:02;;;;;;;;;;;;;;;21.2;39.61621;102120.1;;;;-79
2022/07/04 20:10:01;;;;;;;;;;;;;;;20.99;39.96582;102122.9;;;;-79
2022/07/04 20:15:02;;;;;;;;;;;;;;;20.79;40.42871;102129;;;;-77
2022/07/04 20:18:50;;;;;;;3;1.1;;;;;;;;;;;;;-76
2022/07/04 20:20:06;;;;;;;;;;;;;;;20.6;40.83594;102133.8;;;;-81
2022/07/04 20:25:01;;;;;;;;;;;;;;;20.42;41.10547;102144.5;;;;-77
2022/07/04 20:30:02;;;;;;;;;;;;;;;20.24;41.36426;102145.4;;;;-79
2022/07/04 20:35:04;;;;;;;;;;;;;;;20.09;41.80664;102143;;;;-78
2022/07/04 20:40:01;;;;;;;;;;;;;;;19.96;41.86328;102142.6;;;;-78
2022/07/04 20:45:03;;;;;;;;;;;;;;;19.85;42.24219;102145.9;;;;-78
2022/07/04 20:48:52;;;;;;;4.1;1.1;;;;;;;;;;;;;-77
2022/07/04 20:50:02;;;;;;;;;;;;;;;19.72;42.61719;102146.7;;;;-78
2022/07/04 20:55:02;;;;;;;;;;;;;;;19.62;42.59668;102153.4;;;;-78
2022/07/04 21:00:02;;;;;;;;;;;;;;;19.52;42.89648;102159.2;;;;-79
2022/07/04 21:05:01;;;;;;;;;;;;;;;19.43;43.06934;102164.3;;;;-77
2022/07/04 21:10:01;;;;;;;;;;;;;;;19.37;43.42871;102172.2;;;;-78
2022/07/04 21:15:01;;;;;;;;;;;;;;;19.32;43.77734;102168.1;;;;-78
2022/07/04 21:18:54;;;;;;;3.4;1.3;;;;;;;;;;;;;-78
2022/07/04 21:20:01;;;;;;;;;;;;;;;19.27;43.40723;102167.3;;;;-78
2022/07/04 21:25:01;;;;;;;;;;;;;;;19.23;43.73438;102170.3;;;;-78
2022/07/04 21:30:03;;;;;;;;;;;;;;;19.17;43.78613;102172.5;;;;-79
2022/07/04 21:35:01;;;;;;;;;;;;;;;19.13;44.22656;102175;;;;-79
2022/07/04 21:40:01;;;;;;;;;;;;;;;19.09;44.37109;102179.8;;;;-78
2022/07/04 21:45:01;;;;;;;;;;;;;;;19.02;44.36328;102175.5;;;;-78
2022/07/04 21:49:05;;;;;;;2.5;1.3;;;;;;;;;;;;;-80
2022/07/04 22:06:03;;;;;;;;;;;;;;;19.21;44.24609;102180.1;;;;-85
2022/07/04 22:09:30;;;;;;;;;;;;;;;18.77;44.76172;102185.8;;;;-85
2022/07/04 22:14:23;;;;;;;;;;;;;;;18.7;44.96973;102188.1;;;;-86
2022/07/04 22:19:04;;;;;;;2.9;1.4;;;;;;;;;;;;;-86
2022/07/04 22:19:24;;;;;;;;;;;;;;;18.63;45.24707;102190.5;;;;-84
2022/07/04 22:24:41;;;;;;;;;;;;;;;18.57;45.20801;102198;;;;-85
2022/07/04 22:29:26;;;;;;;;;;;;;;;18.51;45.48535;102191.5;;;;-84
2022/07/04 22:34:23;;;;;;;;;;;;;;;18.47;45.63086;102196.6;;;;-87
2022/07/04 22:35:10;;;;;;;;;;;;;;;18.76;45.10059;102190.2;;;;-81
2022/07/04 22:38:37;;;;;;;;;;;;;;;;;;;;;
2022/07/04 22:43:15;;;;;;;;;;;;;;;18.35;45.69727;102190.6;;;;-83
2022/07/04 22:48:27;;;;;;;;;;;;;;;18.29;45.98535;102187.4;;;;-82
2022/07/04 22:49:28;;;;;;;2.3;1.2;;;;;;;;;;;;;-83
2022/07/04 22:56:23;;;;;;;;;;;;;;;18.2;46.06836;102191.9;;;;-83
2022/07/04 23:18:07;;;;;;;;;;;;;;;18.28;46.21289;102192.4;;;;-83
2022/07/04 23:19:24;;;;;;;2.7;1.3;;;;;;;;;;;;;-82
2022/07/04 23:21:38;;;;;;;;;;;;;;;17.98;46.80664;102194.2;;;;-82
2022/07/04 23:26:48;;;;;;;;;;;;;;;17.96;46.71289;102195.4;;;;-81
2022/07/04 23:31:42;;;;;;;;;;;;;;;17.9;46.52637;102194.1;;;;-82
2022/07/04 23:36:38;;;;;;;;;;;;;;;17.83;46.78027;102192.8;;;;-83
2022/07/04 23:41:55;;;;;;;;;;;;;;;17.77;46.78613;102200.3;;;;-82
2022/07/04 23:46:52;;;;;;;;;;;;;;;17.72;46.80273;102193.1;;;;-81
2022/07/04 23:49:09;;;;;;;3.6;1.6;;;;;;;;;;;;;-83
2022/07/04 23:51:45;;;;;;;;;;;;;;;17.64;47.03223;102191.9;;;;-82
2022/07/04 23:56:39;;;;;;;;;;;;;;;17.59;47.17383;102191.4;;;;-82
